createdAt,value
2019-06-26T00:04:16.031Z,16.00
2019-06-26T00:09:20.713Z,15.05
2019-06-26T00:14:25.467Z,16.00
2019-06-26T00:19:30.265Z,15.45
2019-06-26T00:24:35.251Z,15.40
2019-06-26T00:29:40.355Z,16.20
2019-06-26T00:34:45.114Z,15.60
2019-06-26T00:39:49.810Z,15.55
2019-06-26T00:44:54.510Z,15.23
2019-06-26T00:49:59.095Z,15.60
2019-06-26T00:55:05.492Z,15.48
2019-06-26T01:00:12.275Z,15.65
2019-06-26T01:05:17.147Z,14.85
2019-06-26T01:10:22.085Z,15.53
2019-06-26T01:15:26.830Z,15.20
2019-06-26T01:20:31.589Z,15.90
2019-06-26T01:25:36.172Z,15.88
2019-06-26T01:30:40.862Z,15.70
2019-06-26T01:35:45.513Z,15.10
2019-06-26T01:40:50.213Z,15.70
2019-06-26T01:45:55.396Z,14.68
2019-06-26T01:51:00.683Z,15.30
2019-06-26T01:56:05.965Z,13.32
2019-06-26T02:01:10.649Z,13.40
2019-06-26T02:06:15.672Z,12.85
2019-06-26T02:11:20.482Z,13.18
2019-06-26T02:16:25.115Z,13.25
2019-06-26T02:21:29.975Z,12.43
2019-06-26T02:26:34.753Z,12.13
2019-06-26T02:31:39.448Z,12.07
2019-06-26T02:36:44.095Z,12.47
2019-06-26T02:41:49.010Z,12.95
2019-06-26T02:46:53.606Z,12.90
2019-06-26T02:51:58.251Z,11.95
2019-06-26T02:57:03.067Z,11.73
2019-06-26T03:02:07.688Z,11.80
2019-06-26T03:07:12.389Z,11.60
2019-06-26T03:12:17.064Z,11.05
2019-06-26T03:17:21.823Z,11.73
2019-06-26T03:22:26.478Z,11.95
2019-06-26T03:27:31.250Z,11.33
2019-06-26T03:32:36.752Z,11.55
2019-06-26T03:37:41.737Z,11.22
2019-06-26T03:42:46.496Z,11.08
2019-06-26T03:47:51.194Z,11.00
2019-06-26T03:52:56.082Z,10.35
2019-06-26T03:58:00.874Z,10.43
2019-06-26T04:03:05.559Z,10.30
2019-06-26T04:08:10.216Z,10.08
2019-06-26T04:13:15.070Z,9.48
2019-06-26T04:18:20.093Z,9.50
2019-06-26T04:23:24.959Z,9.80
2019-06-26T04:28:29.593Z,9.18
2019-06-26T04:33:34.147Z,9.38
2019-06-26T04:38:38.841Z,10.13
2019-06-26T04:43:43.620Z,8.75
2019-06-26T04:48:48.396Z,9.08
2019-06-26T04:53:55.696Z,8.40
2019-06-26T04:58:59.248Z,8.38
2019-06-26T05:04:03.925Z,7.83
2019-06-26T05:09:08.633Z,7.87
2019-06-26T05:14:13.595Z,7.58
2019-06-26T05:19:18.246Z,7.50
2019-06-26T05:24:22.831Z,7.95
2019-06-26T05:29:27.659Z,7.95
2019-06-26T05:34:32.388Z,8.23
2019-06-26T05:39:37.286Z,7.20
2019-06-26T05:44:44.062Z,6.75
2019-06-26T05:49:48.652Z,7.28
2019-06-26T05:54:53.384Z,6.58
2019-06-26T05:59:58.851Z,7.55
2019-06-26T06:05:07.328Z,7.10
2019-06-26T06:10:12.464Z,7.83
2019-06-26T06:15:17.763Z,7.60
2019-06-26T06:20:28.222Z,8.58
2019-06-26T06:25:32.906Z,7.80
2019-06-26T06:30:37.729Z,7.70
2019-06-26T06:35:43.069Z,6.92
2019-06-26T06:40:47.939Z,6.65
2019-06-26T06:45:52.782Z,7.95
2019-06-26T06:50:57.741Z,7.28
2019-06-26T06:56:02.348Z,6.97
2019-06-26T07:01:19.114Z,6.58
2019-06-26T07:06:23.731Z,6.80
2019-06-26T07:11:28.388Z,5.83
2019-06-26T07:16:32.996Z,5.70
2019-06-26T07:21:37.720Z,5.70
2019-06-26T07:26:42.296Z,6.33
2019-06-26T07:31:46.905Z,6.53
2019-06-26T07:36:51.537Z,6.53
2019-06-26T07:41:56.115Z,5.30
2019-06-26T07:47:00.884Z,5.70
2019-06-26T07:52:05.485Z,5.72
2019-06-26T07:57:10.105Z,5.60
2019-06-26T08:02:14.803Z,4.65
2019-06-26T08:07:19.512Z,5.00
2019-06-26T08:12:24.044Z,4.78
2019-06-26T08:22:59.975Z,4.72
2019-06-26T08:28:04.889Z,4.30
2019-06-26T08:33:09.875Z,4.55
2019-06-26T08:38:15.848Z,4.78
2019-06-26T08:43:20.848Z,4.85
2019-06-26T08:48:38.929Z,5.15
2019-06-26T08:53:39.362Z,4.60
2019-06-26T08:58:45.000Z,5.28
2019-06-26T09:03:49.948Z,5.20
2019-06-26T09:08:54.849Z,5.28
2019-06-26T09:13:59.646Z,5.45
2019-06-26T09:19:07.583Z,5.27
2019-06-26T09:24:12.617Z,5.42
2019-06-26T09:29:17.787Z,5.47
2019-06-26T09:34:22.679Z,5.42
2019-06-26T09:39:27.645Z,5.97
2019-06-26T09:44:32.569Z,4.90
2019-06-26T09:49:37.474Z,5.60
2019-06-26T09:54:43.088Z,5.72
2019-06-26T09:59:48.529Z,5.03
2019-06-26T10:04:53.856Z,4.95
2019-06-26T10:09:58.701Z,4.70
2019-06-26T10:15:04.977Z,5.30
2019-06-26T10:20:10.497Z,4.50
2019-06-26T10:25:16.152Z,4.75
2019-06-26T10:30:21.233Z,4.87
2019-06-26T10:35:26.537Z,5.03
2019-06-26T10:40:31.494Z,4.75
2019-06-26T10:45:36.488Z,5.33
2019-06-26T10:50:49.426Z,5.55
2019-06-26T10:55:48.020Z,5.17
2019-06-26T11:00:53.489Z,5.30
2019-06-26T11:05:58.406Z,4.78
2019-06-26T11:11:03.456Z,5.50
2019-06-26T11:16:11.320Z,5.75
2019-06-26T11:21:16.575Z,5.55
2019-06-26T11:26:21.511Z,6.00
2019-06-26T11:31:26.473Z,5.95
2019-06-26T11:36:31.354Z,6.40
2019-06-26T11:41:36.235Z,6.45
2019-06-26T11:46:41.174Z,5.78
2019-06-26T11:51:46.063Z,6.20
2019-06-26T11:56:50.952Z,6.15
2019-06-26T12:01:55.965Z,5.78
2019-06-26T12:07:00.915Z,6.05
2019-06-26T12:12:06.069Z,5.80
2019-06-26T12:17:10.961Z,6.30
2019-06-26T12:22:17.366Z,5.72
2019-06-26T12:27:22.463Z,5.87
2019-06-26T12:32:27.362Z,5.22
2019-06-26T12:37:37.653Z,6.08
2019-06-26T12:42:38.926Z,5.30
2019-06-26T12:47:43.900Z,5.17
2019-06-26T12:52:48.887Z,5.53
2019-06-26T12:57:53.764Z,4.97
2019-06-26T13:03:00.383Z,4.97
2019-06-26T13:08:05.354Z,5.10
2019-06-26T13:13:10.274Z,4.58
2019-06-26T13:18:15.249Z,4.80
2019-06-26T13:23:20.208Z,4.80
2019-06-26T13:28:25.126Z,5.05
2019-06-26T13:33:30.026Z,4.67
2019-06-26T13:38:34.830Z,4.50
2019-06-26T13:43:39.589Z,4.50
2019-06-26T13:48:44.495Z,4.75
2019-06-26T13:53:49.247Z,4.67
2019-06-26T13:58:54.010Z,4.58
2019-06-26T14:03:59.540Z,4.85
2019-06-26T14:09:06.670Z,4.25
2019-06-26T14:19:15.579Z,4.10
2019-06-26T14:24:20.623Z,4.17
2019-06-26T14:29:27.879Z,4.00
2019-06-26T14:34:32.785Z,4.28
2019-06-26T14:39:40.873Z,4.53
2019-06-26T14:44:44.246Z,4.75
2019-06-26T14:49:49.352Z,4.53
2019-06-26T14:54:54.209Z,4.10
2019-06-26T14:59:59.192Z,4.05
2019-06-26T15:05:06.922Z,4.50
2019-06-26T15:10:11.859Z,4.65
2019-06-26T15:15:18.239Z,4.45
2019-06-26T15:20:24.993Z,4.45
2019-06-26T15:25:30.186Z,4.80
2019-06-26T15:30:35.146Z,4.70
2019-06-26T15:35:40.264Z,4.20
2019-06-26T15:40:46.166Z,4.35
2019-06-26T15:45:51.210Z,4.53
2019-06-26T15:50:56.137Z,4.58
2019-06-26T15:56:01.195Z,4.65
2019-06-26T16:01:06.213Z,4.60
2019-06-26T16:06:11.214Z,4.72
2019-06-26T16:11:17.693Z,4.47
2019-06-26T16:16:25.474Z,4.45
2019-06-26T16:21:31.935Z,5.05
2019-06-26T16:26:37.067Z,5.10
2019-06-26T16:31:42.695Z,5.10
2019-06-26T16:36:47.736Z,4.72
2019-06-26T16:41:52.727Z,5.00
2019-06-26T16:46:59.342Z,5.08
2019-06-26T16:52:05.989Z,5.43
2019-06-26T16:57:10.734Z,5.50
2019-06-26T17:02:15.838Z,5.25
2019-06-26T17:07:20.582Z,5.78
2019-06-26T17:12:26.969Z,5.65
2019-06-26T17:17:31.924Z,5.67
2019-06-26T17:22:36.679Z,5.03
2019-06-26T17:27:46.070Z,5.22
2019-06-26T17:32:52.408Z,6.90
2019-06-26T17:37:57.252Z,5.65
2019-06-26T17:43:11.680Z,5.80
2019-06-26T17:48:08.956Z,5.22
2019-06-26T17:53:21.385Z,6.03
2019-06-26T17:58:20.237Z,5.72
2019-06-26T18:03:25.010Z,5.80
2019-06-26T18:08:30.041Z,6.00
2019-06-26T18:13:36.811Z,5.58
2019-06-26T18:18:41.710Z,5.47
2019-06-26T18:23:46.493Z,6.20
2019-06-26T18:28:51.435Z,6.03
2019-06-26T18:33:56.543Z,6.53
2019-06-26T18:39:02.115Z,5.90
2019-06-26T18:44:07.317Z,6.37
2019-06-26T18:49:12.437Z,6.15
2019-06-26T18:54:17.268Z,5.85
2019-06-26T18:59:26.281Z,6.20
2019-06-26T19:04:31.321Z,6.70
2019-06-26T19:09:36.901Z,6.47
2019-06-26T19:14:46.061Z,6.90
2019-06-26T19:19:49.899Z,6.53
2019-06-26T19:24:54.905Z,6.50
2019-06-26T19:30:02.913Z,6.20
2019-06-26T19:35:18.525Z,6.22
2019-06-26T19:40:15.695Z,5.70
2019-06-26T19:45:21.008Z,8.35
2019-06-26T19:50:25.859Z,6.72
2019-06-26T19:55:30.716Z,7.40
2019-06-26T20:00:35.645Z,6.83
2019-06-26T20:05:40.708Z,7.92
2019-06-26T20:10:45.935Z,9.23
2019-06-26T20:15:50.965Z,7.40
2019-06-26T20:20:55.858Z,10.70
2019-06-26T20:26:04.074Z,11.15
2019-06-26T20:31:09.660Z,8.65
2019-06-26T20:36:14.776Z,6.30
2019-06-26T20:41:19.784Z,6.97
2019-06-26T20:46:24.750Z,6.55
2019-06-26T20:51:29.753Z,8.03
2019-06-26T20:56:34.675Z,6.80
2019-06-26T21:01:39.775Z,6.72
2019-06-26T21:06:44.866Z,6.53
2019-06-26T21:11:49.982Z,6.70
2019-06-26T21:16:55.153Z,6.25
2019-06-26T21:22:00.498Z,6.00
2019-06-26T21:27:05.614Z,6.85
2019-06-26T21:32:10.457Z,6.50
2019-06-26T21:37:15.447Z,6.75
2019-06-26T21:42:20.625Z,6.45
2019-06-26T21:47:25.608Z,6.53
2019-06-26T21:52:30.537Z,6.70
2019-06-26T21:57:35.591Z,6.28
2019-06-26T22:02:41.279Z,6.62
2019-06-26T22:07:46.673Z,6.87
2019-06-26T22:12:51.625Z,6.33
2019-06-26T22:17:56.779Z,6.58
2019-06-26T22:23:01.670Z,6.80
2019-06-26T22:28:06.740Z,6.95
2019-06-26T22:33:11.645Z,6.33
2019-06-26T22:38:16.705Z,6.55
2019-06-26T22:43:21.863Z,6.20
2019-06-26T22:48:26.599Z,6.12
2019-06-26T22:53:31.466Z,6.15
2019-06-26T22:58:36.338Z,6.30
2019-06-26T23:03:41.550Z,6.40
2019-06-26T23:08:46.331Z,5.83
2019-06-26T23:13:51.510Z,6.37
2019-06-26T23:18:56.555Z,5.95
2019-06-26T23:24:01.487Z,6.00
2019-06-26T23:29:06.475Z,6.10
2019-06-26T23:34:11.275Z,6.20
2019-06-26T23:39:16.141Z,6.10
2019-06-26T23:44:21.158Z,6.30
2019-06-26T23:49:26.047Z,5.80
2019-06-26T23:54:30.994Z,5.47
2019-06-26T23:59:35.958Z,5.62
